Stations météo

Publicité
Uccle, Belgique (6447): Température de l'air & dewpoint: 10.12.2018 13:00:00 - 16.12.2018 13:00:00 (CET)Uccle, Belgique (6447): Vitesse du vent & gusts: 10.12.2018 13:00:00 - 16.12.2018 13:00:00 (CET)Uccle, Belgique (6447): Direction du vent: 10.12.2018 13:00:00 - 16.12.2018 13:00:00 (CET)Uccle, Belgique (6447): reduced air pressure: 10.12.2018 13:00:00 - 16.12.2018 13:00:00 (CET)Uccle, Belgique (6447): Ensoleillement: 10.12.2018 13:00:00 - 16.12.2018 13:00:00 (CET)Uccle, Belgique (6447): Quantités de précipitations: 10.12.2018 13:00:00 - 16.12.2018 13:00:00 (CET)
Date & Time tt [°C] td [°C] ff [km/h] ff [knt] fx [km/h] fx [knt] dd ppp [hPa] sd [min] rr [mm]
16.12.2018 13:00:00 3,1 3,0 13 7 24 13 SW 1010,9 0 0,0
16.12.2018 12:00:00 3,0 2,9 14 8 24 13 SSW 1010,7 0 0,0
16.12.2018 11:00:00 2,7 2,4 10 5 25 13 SSW 1010,6 0 0,0
16.12.2018 10:00:00 2,5 2,3 12 7 23 13 SSW 1010,3 0 0,0
16.12.2018 09:00:00 2,3 1,9 11 6 22 12 SSW 1010,0 0 0,0
16.12.2018 08:00:00 2,3 1,9 11 6 23 13 SSW 1009,6 0 0,0
16.12.2018 07:00:00 1,9 1,4 14 8 26 14 SSW 1009,4 0 0,0
16.12.2018 06:00:00 1,3 0,6 13 7 25 14 SSW 1009,2 0 0,2
16.12.2018 05:00:00 0,8 0,1 14 8 28 15 S 1009,2 0 0,1
16.12.2018 04:00:00 0,7 0,0 13 7 20 11 S 1009,2 0 0,0
16.12.2018 03:00:00 0,5 -0,3 12 7 17 9 SSE 1009,6 0 0,1
16.12.2018 02:00:00 0,4 -0,5 11 6 28 15 SSE 1010,0 0 1,5
16.12.2018 01:00:00 0,3 -0,7 18 10 29 15 SE 1009,9 0 0,4
16.12.2018 00:00:00 0,3 -0,8 18 10 30 16 SE 1010,5 0 1,2
15.12.2018 23:00:00 0,2 -1,3 16 9 45 24 SSE 1010,8 0 1,3
15.12.2018 22:00:00 0,0 -2,0 23 12 45 24 SSE 1011,7 0 1,2
15.12.2018 21:00:00 0,2 -4,4 24 13 51 28 SSE 1013,0 0 0,0
15.12.2018 20:00:00 0,1 -5,2 23 13 47 25 SE 1013,9 0 0,0
15.12.2018 19:00:00 -0,1 -5,2 25 14 42 23 SSE 1015,7 0 0,0
15.12.2018 18:00:00 -0,2 -5,1 20 11 33 18 SE 1016,7 0 0,0
15.12.2018 17:00:00 -0,1 -5,3 16 9 34 19 SE 1018,1 0 0,0
15.12.2018 16:00:00 0,4 -5,3 18 10 37 20 SE 1019,0 11 0,0
15.12.2018 15:00:00 1,0 -5,3 21 12 33 18 SSE 1020,2 38 0,0
15.12.2018 14:00:00 0,8 -5,3 21 11 34 19 SE 1021,5 0 0,0
15.12.2018 13:00:00 0,6 -5,9 22 12 33 18 SSE 1022,2 0 0,0
15.12.2018 12:00:00 0,5 -5,5 18 10 30 16 SE 1022,9 0 0,0
15.12.2018 11:00:00 0,3 -5,4 15 8 24 13 SE 1023,7 0 0,0
15.12.2018 10:00:00 -0,1 -5,0 12 7 21 11 SE 1023,9 0 0,0
15.12.2018 09:00:00 -0,5 -5,3 10 5 18 10 ESE 1024,0 0 0,0
15.12.2018 08:00:00 -0,4 -5,2 8 5 13 7 ESE 1024,1 0 0,0
15.12.2018 07:00:00 -0,9 -5,0 7 4 12 6 ESE 1024,2 0 0,0
15.12.2018 06:00:00 -0,6 -5,3 7 4 14 8 ESE 1024,2 0 0,0
15.12.2018 05:00:00 -0,2 -5,1 8 4 13 7 ESE 1024,4 0 0,0
15.12.2018 04:00:00 -0,4 -4,6 6 3 13 7 ESE 1024,9 0 0,0
15.12.2018 03:00:00 -0,3 -4,3 7 4 11 6 ESE 1025,0 0 0,0
15.12.2018 02:00:00 0,0 -4,0 8 4 11 6 SE 1025,0 0 0,0
15.12.2018 01:00:00 -0,1 -3,6 7 4 12 6 ESE 1025,3 0 0,0
15.12.2018 00:00:00 -0,3 -3,6 5 3 11 6 E 1024,8 0 0,0
14.12.2018 23:00:00 -0,1 -3,6 6 4 15 8 ESE 1024,6 0 0,0
14.12.2018 22:00:00 -0,1 -2,2 6 4 18 10 E 1024,7 0 0,0
14.12.2018 21:00:00 0,1 -1,4 6 4 16 8 E 1024,6 0 0,0
14.12.2018 20:00:00 0,4 -1,5 8 5 15 8 ENE 1024,7 0 0,0
14.12.2018 19:00:00 0,6 -1,6 7 4 13 7 NE 1024,7 0 0,0
14.12.2018 18:00:00 0,7 -2,1 6 3 13 7 NE 1024,3 0 0,0
14.12.2018 17:00:00 0,8 -2,4 7 4 12 7 NE 1024,2 0 0,0
14.12.2018 16:00:00 1,0 -2,5 8 5 23 13 NNE 1023,4 7 0,0
14.12.2018 15:00:00 2,2 -2,8 8 4 23 13 ENE 1022,5 60 0,0
14.12.2018 14:00:00 1,0 -2,2 6 4 16 8 E 1022,2 10 0,0
14.12.2018 13:00:00 0,8 -2,0 7 4 19 10 ENE 1022,2 4 0,0
14.12.2018 12:00:00 0,2 -1,4 8 4 15 8 ENE 1022,6 0 0,0
14.12.2018 11:00:00 -0,1 -1,2 6 4 16 8 ENE 1022,9 0 0,0
14.12.2018 10:00:00 -0,3 -1,5 9 5 18 10 NE 1022,7 0 0,0
14.12.2018 09:00:00 -0,4 -1,6 9 5 16 9 NE 1022,3 0 0,0
14.12.2018 08:00:00 -0,5 -1,6 9 5 15 8 NNE 1021,6 0 0,0
14.12.2018 07:00:00 -1,0 -1,7 7 4 17 9 NE 1021,1 0 0,0
14.12.2018 06:00:00 -1,1 -1,9 10 5 21 11 NE 1020,7 0 0,0
14.12.2018 05:00:00 -2,1 -2,8 11 6 18 10 NE 1020,4 0 0,0
14.12.2018 04:00:00 -2,1 -3,0 11 6 19 10 NE 1020,8 0 0,0
14.12.2018 03:00:00 -2,2 -3,4 10 5 17 9 NE 1021,0 0 0,0
14.12.2018 02:00:00 -2,3 -3,8 9 5 18 10 NE 1020,7 0 0,0
14.12.2018 01:00:00 -1,9 -3,8 11 6 22 12 NE 1020,6 0 0,0
14.12.2018 00:00:00 -1,6 -3,6 12 7 22 12 ENE 1020,4 0 0,0
13.12.2018 23:00:00 -1,4 -3,4 13 7 21 11 ENE 1020,4 0 0,0
13.12.2018 22:00:00 -1,2 -3,4 11 6 20 11 ENE 1020,3 0 0,0
13.12.2018 21:00:00 -0,6 -3,2 12 6 24 13 ENE 1019,9 0 0,0
13.12.2018 20:00:00 -0,3 -3,2 11 6 28 15 ENE 1019,4 0 0,0
13.12.2018 19:00:00 0,2 -3,2 14 8 24 13 ENE 1019,3 0 0,0
13.12.2018 18:00:00 0,5 -3,4 12 6 27 15 ENE 1018,9 0 0,0
13.12.2018 17:00:00 1,1 -3,6 14 8 34 19 E 1018,7 18 0,0
13.12.2018 16:00:00 1,7 -3,5 16 9 34 18 E 1018,2 60 0,0
13.12.2018 15:00:00 2,5 -3,0 16 8 40 22 E 1018,2 60 0,0
13.12.2018 14:00:00 2,7 -2,1 16 9 39 21 E 1018,3 60 0,0
13.12.2018 13:00:00 2,5 -1,3 18 10 41 22 E 1018,7 58 0,0
13.12.2018 12:00:00 1,9 -0,9 17 9 34 18 E 1019,0 60 0,0
13.12.2018 11:00:00 1,0 -0,1 12 6 27 15 E 1019,4 60 0,1
13.12.2018 10:00:00 -0,4 -1,1 13 7 25 14 ENE 1019,7 45 0,0
13.12.2018 09:00:00 -0,9 -1,6 12 7 21 12 ENE 1019,5 0 0,0
13.12.2018 08:00:00 -0,8 -1,6 12 7 21 11 ENE 1019,5 0 0,0
13.12.2018 07:00:00 -0,6 -1,5 11 6 23 13 ENE 1019,6 0 0,0
13.12.2018 06:00:00 -0,6 -1,7 13 7 21 12 ENE 1019,7 0 0,0
13.12.2018 05:00:00 -0,6 -1,8 13 7 24 13 ENE 1020,0 0 0,0
13.12.2018 04:00:00 -0,3 -1,6 14 7 35 19 E 1020,5 0 0,0
13.12.2018 03:00:00 -0,4 -1,4 13 7 25 13 E 1020,8 0 0,0
13.12.2018 02:00:00 -0,5 -1,4 13 7 27 14 E 1021,4 0 0,0
13.12.2018 01:00:00 -0,3 -1,0 14 8 24 13 E 1021,9 0 0,0
13.12.2018 00:00:00 -0,1 -0,9 11 6 23 12 E 1022,2 0 0,0
12.12.2018 23:00:00 0,3 -0,6 12 7 23 13 E 1022,4 0 0,0
12.12.2018 22:00:00 0,4 -0,6 13 7 22 12 E 1023,0 0 0,0
12.12.2018 21:00:00 0,3 -0,6 10 6 17 9 E 1023,3 0 0,0
12.12.2018 20:00:00 0,6 -0,6 8 5 15 8 E 1023,5 0 0,0
12.12.2018 19:00:00 1,5 0,2 11 6 24 13 E 1023,9 0 0,0
12.12.2018 18:00:00 1,6 0,4 11 6 27 14 E 1024,0 0 0,0
12.12.2018 17:00:00 1,6 0,0 11 6 20 11 E 1023,9 11 0,0
12.12.2018 16:00:00 3,6 0,4 14 8 24 13 E 1023,8 60 0,0
12.12.2018 15:00:00 5,4 1,3 8 5 18 10 ENE 1023,8 59 0,0
12.12.2018 14:00:00 5,7 1,4 7 4 21 11 E 1024,2 60 0,0
12.12.2018 13:00:00 5,4 1,8 7 4 15 8 NE 1024,6 60 0,0
12.12.2018 12:00:00 4,6 2,0 5 3 12 7 E 1025,3 60 0,0
12.12.2018 11:00:00 3,6 2,6 7 4 12 6 E 1025,7 60 0,0
12.12.2018 10:00:00 1,0 0,4 6 4 11 6 ENE 1025,5 51 0,0
12.12.2018 09:00:00 0,2 -0,5 8 4 13 7 ENE 1025,4 0 0,0
12.12.2018 08:00:00 -0,3 -1,1 8 5 13 7 NE 1025,3 0 0,0
12.12.2018 07:00:00 0,3 -0,7 7 4 6 4 NE 1025,1 0 0,0
12.12.2018 06:00:00 1,5 0,5 0 0 3 2 N 1024,8 0 0,0
12.12.2018 05:00:00 1,5 0,6 0 0 6 3 N 1025,0 0 0,0
12.12.2018 04:00:00 1,5 0,6 4 2 8 5 W 1025,1 0 0,0
12.12.2018 03:00:00 1,4 0,7 4 2 8 4 SSW 1025,0 0 0,0
12.12.2018 02:00:00 1,6 0,9 4 2 10 5 SW 1024,6 0 0,0
12.12.2018 01:00:00 1,7 1,1 4 2 7 4 SW 1025,1 0 0,0
12.12.2018 00:00:00 1,7 1,0 4 2 11 6 WSW 1025,1 0 0,0
11.12.2018 23:00:00 1,9 1,2 5 3 9 5 SW 1025,1 0 0,0
11.12.2018 22:00:00 1,9 1,1 6 3 8 4 WSW 1025,2 0 0,0
11.12.2018 21:00:00 1,5 0,7 5 3 7 4 SSW 1025,2 0 0,0
11.12.2018 20:00:00 2,4 1,5 5 3 7 4 SSW 1025,2 0 0,0
11.12.2018 19:00:00 2,4 1,3 7 4 10 5 SW 1025,2 0 0,0
11.12.2018 18:00:00 2,7 1,1 6 3 8 5 SW 1024,9 0 0,0
11.12.2018 17:00:00 3,8 1,2 5 3 11 6 SW 1024,9 0 0,0
11.12.2018 16:00:00 5,5 1,8 7 4 11 6 WSW 1024,7 6 0,0
11.12.2018 15:00:00 6,2 2,2 5 3 13 7 W 1024,7 21 0,0
11.12.2018 14:00:00 6,0 2,3 6 3 12 6 W 1025,1 32 0,0
11.12.2018 13:00:00 5,1 2,3 7 4 10 6 WSW 1025,5 0 0,0
11.12.2018 12:00:00 4,5 2,3 6 3 10 6 WSW 1025,9 11 0,0
11.12.2018 11:00:00 3,1 2,0 6 3 13 7 WSW 1026,0 2 0,0
11.12.2018 10:00:00 2,3 1,6 4 2 9 5 SW 1025,9 0 0,0
11.12.2018 09:00:00 1,8 1,2 5 3 11 6 SW 1025,8 0 0,0
11.12.2018 08:00:00 1,2 0,6 7 4 11 6 WSW 1025,4 0 0,0
11.12.2018 07:00:00 1,1 0,5 7 4 9 5 SW 1025,6 0 0,0
11.12.2018 06:00:00 0,3 -0,3 4 2 11 6 SSW 1025,7 0 0,0
11.12.2018 05:00:00 1,0 0,3 7 4 11 6 WSW 1025,6 0 0,0
11.12.2018 04:00:00 0,9 0,1 6 3 11 6 WSW 1025,8 0 0,0
11.12.2018 03:00:00 1,2 0,3 7 4 11 6 WSW 1025,8 0 0,0
11.12.2018 02:00:00 1,8 0,7 7 4 14 8 W 1026,0 0 0,0
11.12.2018 01:00:00 2,6 1,2 7 4 13 7 WSW 1026,3 0 0,0
11.12.2018 00:00:00 3,6 2,0 8 4 15 8 W 1026,2 0 0,0
10.12.2018 23:00:00 4,6 2,9 7 4 14 7 W 1025,9 0 0,0
10.12.2018 22:00:00 4,4 2,6 7 4 12 6 WSW 1025,9 0 0,0
10.12.2018 21:00:00 4,8 2,6 6 3 13 7 W 1026,0 0 0,0
10.12.2018 20:00:00 4,7 2,5 6 3 16 9 W 1025,9 0 0,0
10.12.2018 19:00:00 5,1 2,8 7 4 17 9 W 1025,6 0 0,3
10.12.2018 18:00:00 5,2 1,9 9 5 21 11 W 1025,4 0 0,0
10.12.2018 17:00:00 6,2 1,7 11 6 24 13 W 1025,0 9 0,0
10.12.2018 16:00:00 6,7 1,9 11 6 38 20 WNW 1024,5 55 0,0
10.12.2018 15:00:00 7,2 1,4 23 12 40 21 NW 1024,2 21 0,0
10.12.2018 14:00:00 7,6 3,5 16 9 33 18 NW 1024,0 4 0,0
10.12.2018 13:00:00 7,2 4,4 18 10 32 18 W 1024,1 2 0,0

tt = Température de l'air
td = dewpoint
ff = Vitesse du vent
fx = gusts
dd = Direction du vent
ppp = reduced air pressure
sd = Ensoleillement
rr = Quantités de précipitations

stations d'obs. à proximité